Etusivu
METAR-TAF:

METAR-TAF

Lentoasemat :

Brasília, Distrito Federal, Brasilia

Leveyspiiri: 15-52S, Pituuspiiri: 047-56W, korkeus merenpinnasta: 1061 m

Tämänhetkinen sää

Tämä raportti tehtiin 43 minuuttia sitten, kello 20.00 UTC
Tuuli 7 kn etelästä/kaakosta
Lämpötila 27°C
Kosteus 51%
Ilmanpaine 1020 hPa
Näkyvyys 10 km tai enemmän
Hajanaisia pilviä 4000 ft:n korkeudessa

METAR: SBBR 292000Z 16007KT 9999 SCT040 27/16 Q1020

Aika: 17:43 (20:43 UTC)

Sääennuste

Tämä raportti tehtiin 4 tuntia ja 43 minuuttia sitten, kello 16.00 UTC
Ennuste voimassa 29. päivästä klo 18 UTC - 30. päivään klo 18 UTC
Tuuli 8 kn idästä/kaakosta
Näkyvyys: 9000 m
From 29. päivästä klo 2100 UTC
Näkyvyys 10 km tai enemmän
ei pilviä alle 1500 m:ssä eikä cumulonimbus-pilviä
From 30. päivästä klo 1500 UTC
Näkyvyys: 9000 m

TAF: SBBR 291600Z 2918/3018 11008KT 9000 NSC TX26/2919Z TN16/3009Z FM292100 CAVOK FM301500 9000 NSC RMK PCZ

Säähavainnot ja -ennusteet yli 4000 lentoasemalta (METAR- ja TAF-raportit).

Käytössä olevat sääasemat on merkitty karttaan keltaisilla ja punaisilla pisteillä.

Aseta hiiri pisteen päälle nähdäksesi sääaseman nimen.

Klikkaa sitten nähdäksesi säähavainnot ja -ennusteet.

Kartan vaihtaminen: klikkaa mustalla rastilla varustettuja vihreitä pisteitä, niin voit zoomata sisään; viivalla varustettua vihreää pistettä, niin voit zoomata ulos tai vihreitä nuolia, niin pääset viereisille kartoille.


METAR-TAF: